Time;durP1;ratioP1;P1;durP2;ratioP2;P2;SDS_P1;SDS_P2;PMS_P1;PMS_P2;Temp;Humidity;BMP_temperature;BMP_pressure;BME280_temperature;BME280_humidity;BME280_pressure;Samples;Min_cycle;Max_cycle;Signal;HPM_P1;HPM_P2
2023/03/12 00:02:16;;;;;;;5.87;5.10;;;6.90;47.10;;;;;;5041875;28;20321;-44
2023/03/12 00:04:42;;;;;;;7.63;4.83;;;6.90;47.10;;;;;;5046862;28;20211;-43
2023/03/12 00:07:07;;;;;;;11.00;5.53;;;6.90;47.20;;;;;;5038997;28;20624;-43
2023/03/12 00:09:37;;;;;;;7.60;4.80;;;6.70;47.30;;;;;;5043540;28;20219;-43
2023/03/12 00:12:04;;;;;;;8.07;5.10;;;6.60;47.70;;;;;;5038660;28;20197;-44
2023/03/12 00:14:30;;;;;;;9.03;5.93;;;6.40;48.00;;;;;;5038527;28;20475;-44
2023/03/12 00:16:55;;;;;;;6.37;5.70;;;6.30;48.30;;;;;;5052623;28;20473;-43
2023/03/12 00:19:21;;;;;;;9.50;5.13;;;6.20;48.50;;;;;;5040361;28;20440;-43
2023/03/12 00:21:47;;;;;;;8.93;5.37;;;6.30;48.70;;;;;;5041513;28;20591;-45
2023/03/12 00:24:13;;;;;;;8.90;6.33;;;6.00;48.90;;;;;;5046356;28;20446;-44
2023/03/12 00:26:38;;;;;;;8.60;5.37;;;5.80;49.30;;;;;;5051030;28;20193;-44
2023/03/12 00:29:04;;;;;;;5.90;5.30;;;5.90;49.60;;;;;;5051497;28;20202;-44
2023/03/12 00:31:31;;;;;;;12.80;6.03;;;6.00;49.70;;;;;;5051687;28;20200;-46
2023/03/12 00:33:59;;;;;;;7.90;5.10;;;6.10;49.40;;;;;;5043153;28;20664;-43
2023/03/12 00:36:28;;;;;;;10.20;5.43;;;6.20;49.10;;;;;;5046345;28;20495;-43
2023/03/12 00:38:54;;;;;;;7.77;5.83;;;6.20;49.00;;;;;;5037806;28;20570;-43
2023/03/12 00:41:21;;;;;;;8.03;5.13;;;6.20;48.80;;;;;;5044574;28;20947;-46
2023/03/12 00:43:48;;;;;;;7.40;5.70;;;6.20;48.80;;;;;;5044739;28;20443;-44
2023/03/12 00:46:14;;;;;;;7.43;4.80;;;6.20;48.70;;;;;;5041544;28;20944;-44
2023/03/12 00:48:40;;;;;;;12.27;6.40;;;6.20;48.70;;;;;;5033843;28;20574;-43
2023/03/12 00:51:06;;;;;;;7.03;5.00;;;6.10;48.90;;;;;;5041135;28;20597;-44
2023/03/12 00:53:32;;;;;;;11.03;6.00;;;6.10;49.10;;;;;;5043535;28;20531;-44
2023/03/12 00:55:57;;;;;;;8.03;5.67;;;6.00;49.20;;;;;;5038917;28;21079;-45
2023/03/12 00:58:23;;;;;;;9.40;5.80;;;5.90;49.50;;;;;;5040562;28;20539;-44
2023/03/12 01:00:49;;;;;;;7.13;5.60;;;5.80;49.60;;;;;;5037578;28;20197;-43
2023/03/12 01:03:15;;;;;;;9.70;6.07;;;5.70;50.00;;;;;;5041753;28;20200;-43
2023/03/12 01:05:40;;;;;;;10.60;6.10;;;5.60;50.20;;;;;;5040529;28;20193;-44
2023/03/12 01:08:09;;;;;;;11.30;6.07;;;5.50;50.40;;;;;;5042305;28;20463;-46
2023/03/12 01:10:39;;;;;;;10.00;5.90;;;5.40;50.80;;;;;;5047072;28;20192;-46
2023/03/12 01:13:05;;;;;;;6.63;5.40;;;5.30;50.90;;;;;;5045835;28;20490;-46
2023/03/12 01:15:30;;;;;;;9.17;5.23;;;5.40;51.10;;;;;;5048337;28;20523;-43
2023/03/12 01:17:56;;;;;;;10.50;5.93;;;5.50;50.90;;;;;;5032672;28;22101;-43
2023/03/12 01:20:22;;;;;;;7.13;5.30;;;5.60;50.50;;;;;;5047255;28;20307;-43
2023/03/12 01:22:48;;;;;;;7.47;5.07;;;5.40;50.50;;;;;;5032038;28;20201;-44
2023/03/12 01:25:13;;;;;;;7.97;5.17;;;5.20;51.30;;;;;;5045532;28;20201;-45
2023/03/12 01:27:39;;;;;;;7.50;5.50;;;5.30;51.30;;;;;;5032255;28;20910;-43
2023/03/12 01:30:05;;;;;;;9.30;5.17;;;5.30;51.30;;;;;;5034605;28;20230;-43
2023/03/12 01:32:31;;;;;;;8.00;5.90;;;5.40;51.40;;;;;;5039988;28;20193;-45
2023/03/12 01:34:57;;;;;;;9.43;6.33;;;5.40;51.10;;;;;;5037234;28;20467;-43
2023/03/12 01:37:23;;;;;;;11.60;6.10;;;5.50;51.00;;;;;;5040331;28;20276;-44
2023/03/12 01:39:49;;;;;;;7.73;5.10;;;5.50;50.80;;;;;;5049117;28;20533;-44
2023/03/12 01:42:14;;;;;;;9.13;5.70;;;5.50;50.90;;;;;;5039021;28;21003;-43
2023/03/12 01:44:56;;;;;;;7.33;4.77;;;5.60;50.90;;;;;;5044041;28;20193;-43
2023/03/12 01:47:23;;;;;;;6.87;4.97;;;5.60;50.80;;;;;;5042226;28;20192;-43
2023/03/12 01:49:51;;;;;;;7.30;5.53;;;5.40;51.10;;;;;;5040062;28;20866;-45
2023/03/12 01:52:28;;;;;;;8.10;5.70;;;5.40;51.30;;;;;;5035935;28;20447;-44
2023/03/12 01:55:15;;;;;;;6.43;5.13;;;5.40;51.20;;;;;;5039764;28;20503;-45
2023/03/12 01:57:53;;;;;;;7.73;5.63;;;5.30;51.50;;;;;;5039121;28;20870;-43
2023/03/12 02:00:24;;;;;;;9.10;5.50;;;5.20;52.50;;;;;;5043938;28;20553;-45
2023/03/12 02:02:51;;;;;;;7.20;5.13;;;5.30;51.90;;;;;;5040216;28;20888;-45
2023/03/12 02:05:36;;;;;;;7.87;5.27;;;5.20;52.10;;;;;;5043055;28;20435;-43
2023/03/12 02:08:02;;;;;;;6.67;4.93;;;4.90;52.50;;;;;;5044342;28;20533;-43
2023/03/12 02:10:28;;;;;;;9.13;5.40;;;4.80;53.10;;;;;;5047768;28;21036;-45
2023/03/12 02:12:54;;;;;;;7.83;6.13;;;5.00;53.10;;;;;;5038708;28;20211;-46
2023/03/12 02:15:19;;;;;;;11.03;5.40;;;5.10;53.10;;;;;;5048888;28;20231;-44
2023/03/12 02:17:45;;;;;;;6.97;4.60;;;5.00;52.80;;;;;;5048587;28;20197;-45
2023/03/12 02:20:31;;;;;;;7.70;4.90;;;4.80;53.20;;;;;;5047564;28;20192;-46
2023/03/12 02:23:41;;;;;;;7.57;5.13;;;4.80;53.20;;;;;;5041551;28;20200;-43
2023/03/12 02:26:08;;;;;;;9.90;5.47;;;4.70;53.60;;;;;;5039459;28;20436;-43
2023/03/12 02:28:41;;;;;;;10.60;5.33;;;4.90;53.40;;;;;;5045125;28;20518;-44
2023/03/12 02:31:07;;;;;;;6.30;5.10;;;5.00;53.30;;;;;;5040453;28;20988;-45
2023/03/12 02:33:33;;;;;;;9.90;4.67;;;4.90;53.20;;;;;;5043693;28;20427;-43
2023/03/12 02:35:58;;;;;;;8.37;6.13;;;4.80;53.30;;;;;;5043555;28;20536;-44
2023/03/12 02:38:46;;;;;;;5.47;4.40;;;4.50;54.40;;;;;;5041707;28;20327;-45
2023/03/12 02:41:17;;;;;;;9.33;5.73;;;4.70;54.70;;;;;;5038257;28;20220;-46
2023/03/12 02:43:50;;;;;;;5.90;4.70;;;4.80;54.00;;;;;;5039753;28;20498;-44
2023/03/12 02:46:16;;;;;;;9.33;4.63;;;4.90;53.80;;;;;;5033135;28;20469;-44
2023/03/12 02:48:42;;;;;;;10.07;5.60;;;5.00;53.80;;;;;;5038072;28;20447;-45
2023/03/12 02:51:08;;;;;;;6.10;4.30;;;5.00;53.40;;;;;;5037977;28;20496;-44
2023/03/12 02:53:33;;;;;;;6.80;4.93;;;5.00;53.20;;;;;;5036461;28;20228;-42
2023/03/12 02:55:59;;;;;;;3.90;3.60;;;4.80;53.40;;;;;;5033571;28;20241;-43
2023/03/12 02:58:24;;;;;;;5.40;4.33;;;4.90;53.50;;;;;;5038045;28;20212;-48
2023/03/12 03:00:50;;;;;;;8.67;4.73;;;5.20;53.40;;;;;;5038252;28;20212;-46
2023/03/12 03:03:16;;;;;;;10.07;4.63;;;5.40;52.80;;;;;;5047352;28;20223;-45
2023/03/12 03:05:42;;;;;;;10.27;5.60;;;5.40;52.50;;;;;;5039943;28;20211;-43
2023/03/12 03:08:07;;;;;;;5.23;4.70;;;5.30;52.60;;;;;;5049802;28;20192;-43
2023/03/12 03:10:36;;;;;;;6.03;4.77;;;5.40;52.60;;;;;;5047886;28;20197;-43
2023/03/12 03:13:02;;;;;;;9.03;4.50;;;5.40;52.20;;;;;;5045151;28;20200;-43
2023/03/12 03:15:27;;;;;;;7.90;4.60;;;5.20;52.70;;;;;;5048595;28;20985;-44
2023/03/12 03:17:53;;;;;;;7.17;4.47;;;4.90;52.90;;;;;;5048695;28;20263;-44
2023/03/12 03:20:20;;;;;;;5.10;4.60;;;4.80;53.60;;;;;;5045622;28;20254;-44
2023/03/12 03:22:45;;;;;;;6.30;4.43;;;4.90;53.60;;;;;;5050674;28;20199;-47
2023/03/12 03:25:11;;;;;;;6.80;4.07;;;5.00;53.60;;;;;;5037185;28;20531;-47
2023/03/12 03:27:36;;;;;;;8.63;4.33;;;4.90;53.40;;;;;;5046318;28;20196;-43
2023/03/12 03:30:04;;;;;;;7.63;4.20;;;4.80;53.90;;;;;;5040892;28;20204;-47
2023/03/12 03:32:29;;;;;;;7.10;4.63;;;4.80;53.80;;;;;;5037734;28;20228;-44
2023/03/12 03:34:55;;;;;;;4.13;3.73;;;4.90;53.60;;;;;;5047494;28;20494;-43
2023/03/12 03:37:20;;;;;;;7.40;4.73;;;4.90;53.40;;;;;;5046811;28;20196;-45
2023/03/12 03:39:46;;;;;;;6.63;4.00;;;4.90;53.50;;;;;;5042138;28;20714;-44
2023/03/12 03:42:11;;;;;;;7.23;3.87;;;5.00;53.50;;;;;;5047981;28;20197;-44
2023/03/12 03:44:37;;;;;;;6.30;4.40;;;5.30;53.20;;;;;;5045560;28;20718;-47
2023/03/12 03:47:03;;;;;;;6.13;4.27;;;5.20;52.70;;;;;;5046194;28;20215;-44
2023/03/12 03:49:28;;;;;;;4.93;4.03;;;5.20;52.60;;;;;;5052799;28;20200;-44
2023/03/12 03:51:54;;;;;;;4.60;3.87;;;5.20;52.40;;;;;;5047652;28;20189;-45
2023/03/12 03:54:19;;;;;;;5.30;3.90;;;5.10;52.70;;;;;;5045982;28;20235;-44
2023/03/12 03:56:46;;;;;;;8.63;4.23;;;5.20;52.80;;;;;;5038043;28;20209;-44
2023/03/12 03:59:12;;;;;;;5.03;4.10;;;5.30;52.70;;;;;;5044449;28;20185;-45
2023/03/12 04:01:38;;;;;;;6.80;4.23;;;5.20;53.00;;;;;;5035626;28;20436;-44
2023/03/12 04:04:04;;;;;;;8.13;3.87;;;5.30;53.00;;;;;;5035244;28;20969;-47
2023/03/12 04:06:30;;;;;;;6.07;4.23;;;5.50;52.80;;;;;;5046213;28;20193;-46
2023/03/12 04:08:57;;;;;;;7.23;4.20;;;5.50;52.30;;;;;;5043685;28;20444;-46
2023/03/12 04:11:23;;;;;;;6.73;4.40;;;5.50;52.60;;;;;;5042471;28;20447;-47
2023/03/12 04:13:49;;;;;;;5.83;4.13;;;5.50;52.60;;;;;;5046650;28;21229;-46
2023/03/12 04:16:15;;;;;;;6.93;3.80;;;5.20;52.80;;;;;;5046935;28;20873;-44
2023/03/12 04:18:41;;;;;;;8.73;4.73;;;5.30;53.10;;;;;;5052542;28;20435;-46
2023/03/12 04:21:09;;;;;;;6.53;4.10;;;5.20;53.20;;;;;;5047590;28;20660;-44
2023/03/12 04:23:35;;;;;;;6.20;4.27;;;5.20;53.40;;;;;;5050072;28;20261;-44
2023/03/12 04:26:01;;;;;;;8.23;4.23;;;5.10;53.40;;;;;;5043485;28;20451;-45
2023/03/12 04:28:27;;;;;;;5.43;4.03;;;4.90;53.80;;;;;;5047604;28;20515;-44
2023/03/12 04:30:58;;;;;;;4.10;3.70;;;5.00;53.80;;;;;;5031723;28;20440;-44
2023/03/12 04:33:25;;;;;;;8.50;4.60;;;5.00;53.90;;;;;;5042639;28;20185;-45
2023/03/12 04:35:52;;;;;;;6.67;4.00;;;4.90;53.80;;;;;;5042013;28;21154;-47
2023/03/12 04:38:19;;;;;;;5.20;3.63;;;4.90;54.10;;;;;;5038164;28;20450;-46
2023/03/12 04:40:45;;;;;;;7.67;4.20;;;5.00;54.00;;;;;;5035268;28;20439;-45
2023/03/12 04:43:10;;;;;;;6.10;4.43;;;5.10;53.70;;;;;;5035158;28;20482;-47
2023/03/12 04:45:38;;;;;;;7.50;3.90;;;5.20;53.80;;;;;;5032739;28;20230;-43
2023/03/12 04:48:04;;;;;;;7.17;4.07;;;5.10;53.80;;;;;;5035340;28;20567;-43
2023/03/12 04:50:30;;;;;;;5.70;4.03;;;5.20;53.70;;;;;;5039266;28;20443;-45
2023/03/12 04:52:55;;;;;;;5.10;3.97;;;5.20;53.50;;;;;;5038992;28;20489;-48
2023/03/12 04:55:21;;;;;;;6.40;4.23;;;5.20;53.50;;;;;;5038965;28;20290;-46
2023/03/12 04:57:46;;;;;;;7.50;4.20;;;5.40;53.40;;;;;;5039598;28;20193;-43
2023/03/12 05:00:12;;;;;;;10.90;4.27;;;5.40;52.80;;;;;;5036272;28;20246;-45
2023/03/12 05:02:39;;;;;;;6.27;3.83;;;5.40;53.20;;;;;;5039952;28;20196;-43
2023/03/12 05:05:06;;;;;;;4.37;3.90;;;5.30;53.20;;;;;;5034867;28;20808;-46
2023/03/12 05:07:33;;;;;;;5.80;4.00;;;5.20;53.70;;;;;;5038970;28;20446;-44
2023/03/12 05:09:58;;;;;;;7.50;4.20;;;5.30;53.60;;;;;;5044162;28;20448;-43
2023/03/12 05:12:24;;;;;;;4.80;4.27;;;5.50;53.50;;;;;;5051853;28;20451;-44
2023/03/12 05:14:50;;;;;;;5.23;4.10;;;5.70;53.00;;;;;;5036013;28;20226;-43
2023/03/12 05:17:15;;;;;;;9.00;4.37;;;5.40;52.60;;;;;;5045559;28;20798;-44
2023/03/12 05:19:41;;;;;;;5.40;3.83;;;5.40;53.30;;;;;;5037094;28;20761;-43
2023/03/12 05:22:06;;;;;;;3.67;3.37;;;5.10;53.50;;;;;;5045754;28;20279;-44
2023/03/12 05:24:32;;;;;;;6.07;3.50;;;5.10;53.90;;;;;;5044890;28;20212;-43
2023/03/12 05:26:58;;;;;;;5.33;3.50;;;5.20;53.80;;;;;;5040724;28;20196;-43
2023/03/12 05:29:23;;;;;;;10.10;4.10;;;5.00;53.60;;;;;;5039341;28;20907;-43
2023/03/12 05:31:49;;;;;;;4.77;3.80;;;5.10;53.70;;;;;;5043287;28;20770;-44
2023/03/12 05:34:15;;;;;;;10.10;4.60;;;5.40;53.40;;;;;;5045559;28;20279;-43
2023/03/12 05:36:41;;;;;;;5.43;4.73;;;5.70;52.70;;;;;;5042041;28;20263;-44
2023/03/12 05:39:06;;;;;;;6.13;3.83;;;5.60;52.70;;;;;;5038262;28;20478;-50
2023/03/12 05:41:32;;;;;;;6.93;3.67;;;5.30;53.00;;;;;;5039734;28;20202;-44
2023/03/12 05:43:58;;;;;;;3.50;2.97;;;5.40;53.40;;;;;;5031300;28;20201;-45
2023/03/12 05:46:25;;;;;;;6.30;3.00;;;5.40;52.90;;;;;;5043087;28;20188;-44
2023/03/12 05:48:51;;;;;;;6.83;3.90;;;5.50;53.20;;;;;;5034524;28;20459;-43
2023/03/12 05:51:17;;;;;;;4.70;3.73;;;5.80;52.70;;;;;;5042016;28;20500;-43
2023/03/12 05:53:45;;;;;;;5.57;3.67;;;5.90;52.30;;;;;;5045360;28;20431;-45
2023/03/12 05:56:14;;;;;;;5.30;3.40;;;5.70;52.10;;;;;;5040724;28;20236;-43
2023/03/12 05:58:40;;;;;;;7.27;4.07;;;5.60;52.60;;;;;;5037095;28;20439;-45
2023/03/12 06:01:21;;;;;;;4.70;3.23;;;5.50;52.60;;;;;;5039786;28;20489;-43
2023/03/12 06:03:46;;;;;;;5.47;3.80;;;5.50;53.20;;;;;;5047702;28;20949;-45
2023/03/12 06:06:13;;;;;;;5.90;3.53;;;5.50;53.10;;;;;;5054631;28;20442;-45
2023/03/12 06:08:39;;;;;;;5.03;3.40;;;5.60;53.00;;;;;;5049286;28;20196;-43
2023/03/12 06:11:05;;;;;;;5.50;3.70;;;5.60;52.90;;;;;;5048543;28;20571;-43
2023/03/12 06:13:31;;;;;;;3.60;3.30;;;5.80;52.70;;;;;;5043957;28;21244;-44
2023/03/12 06:16:04;;;;;;;4.53;4.00;;;5.90;52.40;;;;;;5049881;28;20597;-44
2023/03/12 06:18:32;;;;;;;6.63;4.00;;;6.20;52.80;;;;;;5050162;28;20537;-43
2023/03/12 06:21:27;;;;;;;7.00;4.20;;;6.10;52.20;;;;;;5035846;28;20438;-45
2023/03/12 06:23:54;;;;;;;5.33;3.70;;;6.00;52.20;;;;;;5023592;28;20455;-43
2023/03/12 06:26:20;;;;;;;6.63;3.67;;;5.80;53.20;;;;;;5040679;28;20447;-43
2023/03/12 06:28:47;;;;;;;5.60;3.60;;;5.80;53.60;;;;;;5051367;28;20949;-43
2023/03/12 06:31:14;;;;;;;8.07;4.37;;;6.00;56.20;;;;;;5049702;28;20435;-43
2023/03/12 06:33:40;;;;;;;4.43;3.50;;;6.50;56.90;;;;;;5046225;28;20459;-43
2023/03/12 06:36:07;;;;;;;5.20;3.87;;;6.90;56.30;;;;;;5049323;28;20482;-43
2023/03/12 06:38:33;;;;;;;5.20;4.13;;;7.10;55.10;;;;;;5039447;28;20440;-44
2023/03/12 06:41:19;;;;;;;4.03;3.23;;;7.30;53.80;;;;;;5038446;28;20870;-44
2023/03/12 06:43:45;;;;;;;6.60;3.97;;;7.50;54.30;;;;;;5037341;28;21016;-44
2023/03/12 06:46:13;;;;;;;7.87;4.80;;;8.00;53.10;;;;;;5039763;28;20575;-44
2023/03/12 06:48:40;;;;;;;6.07;4.20;;;8.30;52.50;;;;;;5040980;28;20588;-44
2023/03/12 06:51:07;;;;;;;6.80;3.90;;;8.40;51.40;;;;;;5047662;28;20434;-44
2023/03/12 06:53:34;;;;;;;8.97;3.60;;;8.60;50.90;;;;;;5045331;28;20969;-44
2023/03/12 06:55:59;;;;;;;5.00;3.63;;;8.70;50.40;;;;;;5036872;28;20545;-45
2023/03/12 06:58:25;;;;;;;4.80;3.33;;;8.80;50.00;;;;;;5053612;28;20431;-44
2023/03/12 07:00:52;;;;;;;5.07;3.20;;;8.90;49.70;;;;;;5050043;28;20442;-44
2023/03/12 07:03:17;;;;;;;5.37;3.67;;;8.80;49.40;;;;;;5052351;28;20196;-45
2023/03/12 07:05:44;;;;;;;5.07;3.40;;;8.90;49.70;;;;;;5041207;28;20462;-44
2023/03/12 07:08:10;;;;;;;10.07;3.80;;;8.90;49.50;;;;;;5045798;28;20196;-43
2023/03/12 07:10:35;;;;;;;5.53;3.43;;;8.70;50.00;;;;;;5039976;28;20436;-44
2023/03/12 07:13:01;;;;;;;6.43;4.40;;;8.90;50.40;;;;;;5046747;28;20219;-43
2023/03/12 07:15:26;;;;;;;5.60;3.50;;;8.80;50.60;;;;;;5049902;28;20228;-44
2023/03/12 07:17:52;;;;;;;7.90;4.50;;;8.70;51.10;;;;;;5046157;28;20673;-43
2023/03/12 07:20:18;;;;;;;7.93;3.97;;;8.60;51.70;;;;;;5039262;28;20212;-43
2023/03/12 07:22:43;;;;;;;4.80;4.30;;;8.60;52.60;;;;;;5039995;28;20315;-43
2023/03/12 07:25:10;;;;;;;8.27;6.80;;;8.50;53.50;;;;;;5034969;28;21019;-44
2023/03/12 07:27:35;;;;;;;6.77;4.33;;;8.50;54.00;;;;;;5040962;28;20583;-43
2023/03/12 07:30:01;;;;;;;6.77;5.50;;;8.40;54.40;;;;;;5047569;28;20496;-43
2023/03/12 07:32:27;;;;;;;8.53;5.63;;;8.10;55.00;;;;;;5035643;28;20205;-44
2023/03/12 07:34:52;;;;;;;8.77;4.93;;;8.10;55.60;;;;;;5041300;28;20262;-44
2023/03/12 07:37:18;;;;;;;6.10;3.83;;;8.10;56.20;;;;;;5047449;28;20200;-45
2023/03/12 07:39:44;;;;;;;5.30;4.00;;;7.90;56.60;;;;;;5045818;28;20193;-45
2023/03/12 07:42:11;;;;;;;4.80;4.30;;;7.80;57.50;;;;;;5041598;28;20568;-45
2023/03/12 07:44:37;;;;;;;8.40;5.47;;;7.70;58.20;;;;;;5042034;28;20192;-44
2023/03/12 07:47:03;;;;;;;6.70;4.30;;;7.70;58.70;;;;;;5043748;28;20442;-44
2023/03/12 07:49:28;;;;;;;9.03;5.13;;;7.60;59.10;;;;;;5041886;28;20189;-46
2023/03/12 07:51:54;;;;;;;6.70;4.53;;;7.50;59.80;;;;;;5043225;28;20326;-47
2023/03/12 07:54:24;;;;;;;5.57;3.90;;;7.30;60.40;;;;;;5051262;28;20235;-43
2023/03/12 07:56:49;;;;;;;8.70;4.60;;;7.30;61.00;;;;;;5045648;28;20239;-43
2023/03/12 07:59:15;;;;;;;7.50;4.80;;;7.30;61.00;;;;;;5046361;28;20447;-44
2023/03/12 08:01:41;;;;;;;6.17;4.90;;;7.30;61.70;;;;;;5043928;28;20196;-43
2023/03/12 08:04:06;;;;;;;5.80;4.90;;;7.00;62.40;;;;;;5048144;28;20563;-43
2023/03/12 08:06:32;;;;;;;5.43;4.93;;;7.00;62.90;;;;;;5046942;28;20262;-44
2023/03/12 08:08:57;;;;;;;10.87;5.07;;;7.00;63.80;;;;;;5036551;28;20195;-44
2023/03/12 08:11:23;;;;;;;11.60;4.90;;;6.90;64.90;;;;;;5041543;28;20185;-44
2023/03/12 08:13:48;;;;;;;6.40;5.27;;;6.90;66.40;;;;;;5047773;28;20203;-44
2023/03/12 08:16:14;;;;;;;6.63;4.50;;;6.90;66.20;;;;;;5034789;28;20316;-42
2023/03/12 08:18:41;;;;;;;10.23;5.50;;;7.00;66.10;;;;;;5037598;28;20204;-43
2023/03/12 08:21:07;;;;;;;8.13;4.80;;;7.00;65.80;;;;;;5045055;28;20275;-46
2023/03/12 08:23:33;;;;;;;8.80;5.80;;;6.80;66.40;;;;;;5039092;28;20577;-43
2023/03/12 08:25:59;;;;;;;10.23;5.87;;;7.00;66.50;;;;;;5041753;28;20537;-42
2023/03/12 08:28:24;;;;;;;6.57;4.93;;;7.00;66.00;;;;;;5033802;28;20195;-44
2023/03/12 08:30:53;;;;;;;6.20;4.73;;;7.10;65.50;;;;;;5042442;28;20666;-46
2023/03/12 08:33:19;;;;;;;6.50;4.50;;;7.10;65.50;;;;;;5040915;28;20589;-48
2023/03/12 08:35:45;;;;;;;7.70;5.43;;;7.20;65.40;;;;;;5044795;28;20497;-44
2023/03/12 08:38:11;;;;;;;7.07;5.13;;;7.20;65.60;;;;;;5048079;28;20435;-44
2023/03/12 08:40:37;;;;;;;8.00;6.40;;;7.30;65.70;;;;;;5049771;28;20454;-46
2023/03/12 08:43:03;;;;;;;12.13;6.60;;;7.50;65.60;;;;;;5048741;28;20479;-47
2023/03/12 08:45:29;;;;;;;9.43;6.50;;;7.40;65.60;;;;;;5051074;28;20664;-46
2023/03/12 08:47:55;;;;;;;8.83;6.50;;;7.50;65.80;;;;;;5045987;28;20441;-45
2023/03/12 08:50:21;;;;;;;12.80;7.33;;;7.50;65.60;;;;;;5051153;28;20435;-43
2023/03/12 08:52:47;;;;;;;9.70;7.50;;;7.60;65.90;;;;;;5050459;28;20211;-46
2023/03/12 08:55:13;;;;;;;13.83;8.57;;;7.90;65.60;;;;;;5050705;28;20486;-44
2023/03/12 08:57:39;;;;;;;16.80;8.07;;;8.10;65.30;;;;;;5042925;28;20865;-47
2023/03/12 09:00:10;;;;;;;9.37;7.60;;;8.20;65.20;;;;;;5049279;28;20193;-45
2023/03/12 09:02:36;;;;;;;8.33;6.50;;;8.30;65.30;;;;;;5051193;28;20526;-45
2023/03/12 09:05:03;;;;;;;7.73;5.87;;;8.50;64.80;;;;;;5050500;28;20446;-47
2023/03/12 09:07:30;;;;;;;9.53;6.43;;;8.60;64.50;;;;;;5049987;28;20817;-45
2023/03/12 09:09:56;;;;;;;7.90;6.17;;;8.60;64.50;;;;;;5049857;28;20443;-44
2023/03/12 09:12:22;;;;;;;11.13;6.20;;;8.50;65.40;;;;;;5050326;28;20965;-48
2023/03/12 09:14:50;;;;;;;13.70;7.00;;;8.70;66.00;;;;;;5050181;28;20276;-43
2023/03/12 09:17:15;;;;;;;8.03;6.47;;;8.70;66.70;;;;;;5051170;28;20419;-43
2023/03/12 09:19:41;;;;;;;8.00;6.43;;;8.80;66.50;;;;;;5048758;28;21246;-43
2023/03/12 09:22:07;;;;;;;8.37;6.87;;;8.80;66.90;;;;;;5046366;28;20254;-47
2023/03/12 09:24:32;;;;;;;6.50;5.90;;;8.70;67.40;;;;;;5048464;28;20201;-44
2023/03/12 09:26:58;;;;;;;9.70;6.50;;;8.80;67.70;;;;;;5050274;28;20196;-48
2023/03/12 09:29:24;;;;;;;7.20;6.33;;;8.90;68.10;;;;;;5046783;28;20311;-43
2023/03/12 09:31:50;;;;;;;10.70;7.30;;;9.10;67.90;;;;;;5044128;28;20197;-43
2023/03/12 09:34:16;;;;;;;8.60;6.00;;;9.20;66.70;;;;;;5043108;28;20185;-45
2023/03/12 09:36:42;;;;;;;8.70;6.50;;;9.30;66.90;;;;;;5047655;28;20578;-46
2023/03/12 09:39:07;;;;;;;6.87;6.17;;;9.20;66.90;;;;;;5045449;28;20534;-43
2023/03/12 09:41:38;;;;;;;8.30;7.23;;;9.20;67.70;;;;;;5049931;28;20204;-48
2023/03/12 09:44:15;;;;;;;8.50;7.27;;;9.30;67.50;;;;;;5050982;28;20232;-47
2023/03/12 09:46:49;;;;;;;9.57;7.50;;;9.40;67.90;;;;;;5048030;28;20461;-46
2023/03/12 09:49:41;;;;;;;10.63;7.30;;;9.50;67.10;;;;;;5047773;28;20494;-46
2023/03/12 09:52:29;;;;;;;8.03;7.07;;;9.70;66.60;;;;;;5040609;28;20517;-44
2023/03/12 09:55:16;;;;;;;8.90;6.83;;;9.90;66.00;;;;;;5044231;28;20487;-47
2023/03/12 09:57:46;;;;;;;8.93;7.10;;;10.00;64.50;;;;;;5045711;28;20864;-45
2023/03/12 10:00:15;;;;;;;10.57;7.30;;;10.00;64.50;;;;;;5049028;28;20465;-46
2023/03/12 10:03:02;;;;;;;9.83;7.13;;;9.90;65.80;;;;;;5049051;28;20427;-45
2023/03/12 10:05:52;;;;;;;8.70;7.20;;;9.90;66.70;;;;;;5048665;28;20499;-44
2023/03/12 10:08:23;;;;;;;10.23;7.77;;;10.10;65.50;;;;;;5049360;28;20483;-44
2023/03/12 10:11:03;;;;;;;8.20;7.07;;;10.20;65.40;;;;;;5050197;28;20426;-43
2023/03/12 10:13:53;;;;;;;8.43;7.53;;;10.50;65.20;;;;;;5053728;28;20811;-45
2023/03/12 10:16:51;;;;;;;6.90;5.40;;;10.60;65.10;;;;;;5048566;28;20497;-46
2023/03/12 10:19:27;;;;;;;8.07;6.67;;;10.80;65.40;;;;;;5037002;28;20455;-43
2023/03/12 10:22:01;;;;;;;6.27;5.67;;;11.10;65.90;;;;;;5054262;28;20427;-45
2023/03/12 10:24:54;;;;;;;8.70;6.97;;;11.20;65.70;;;;;;5042202;28;20871;-47
2023/03/12 10:27:23;;;;;;;17.00;8.93;;;11.50;65.40;;;;;;5052549;28;20450;-44
2023/03/12 10:29:51;;;;;;;6.90;6.20;;;11.50;65.10;;;;;;5052609;28;20458;-45
2023/03/12 10:32:32;;;;;;;9.53;7.13;;;11.60;64.60;;;;;;5053036;28;20934;-48
2023/03/12 10:35:02;;;;;;;10.17;6.33;;;11.70;65.10;;;;;;5053296;28;20942;-45
2023/03/12 10:37:33;;;;;;;6.77;5.20;;;11.80;65.00;;;;;;5048150;28;20443;-48
2023/03/12 10:40:00;;;;;;;8.00;5.50;;;11.90;65.50;;;;;;5041885;28;20951;-46
2023/03/12 10:42:28;;;;;;;4.90;4.40;;;12.00;65.40;;;;;;5050723;28;20451;-45
2023/03/12 10:45:09;;;;;;;5.67;5.07;;;12.00;65.90;;;;;;5051204;28;20447;-45
2023/03/12 10:47:42;;;;;;;5.53;4.93;;;12.20;65.60;;;;;;5052278;28;20442;-46
2023/03/12 10:50:11;;;;;;;6.50;4.53;;;12.30;64.80;;;;;;5041105;28;20449;-44
2023/03/12 10:52:36;;;;;;;5.50;5.00;;;12.30;64.60;;;;;;5046364;28;20435;-44
2023/03/12 10:55:11;;;;;;;4.70;4.30;;;12.40;64.40;;;;;;5052671;28;20489;-46
2023/03/12 10:57:41;;;;;;;5.00;4.50;;;12.20;65.00;;;;;;5051738;28;20200;-46
2023/03/12 11:00:11;;;;;;;5.63;4.30;;;12.10;65.70;;;;;;5051174;28;20942;-46
2023/03/12 11:02:43;;;;;;;5.13;4.40;;;12.20;65.60;;;;;;5052564;28;20450;-45
2023/03/12 11:05:24;;;;;;;5.73;4.40;;;12.40;64.90;;;;;;5053637;28;20426;-44
2023/03/12 11:07:50;;;;;;;5.03;4.00;;;12.60;65.10;;;;;;5053312;28;20457;-45
2023/03/12 11:10:43;;;;;;;4.60;3.50;;;12.60;65.20;;;;;;5050959;28;20435;-46
2023/03/12 11:13:24;;;;;;;3.87;3.47;;;12.60;66.00;;;;;;5037675;28;20472;-46
2023/03/12 11:15:51;;;;;;;4.10;3.27;;;12.70;66.90;;;;;;5044030;28;20532;-44
2023/03/12 11:18:32;;;;;;;3.27;2.97;;;12.50;69.10;;;;;;5053376;28;20467;-44
2023/03/12 11:21:12;;;;;;;3.70;3.40;;;12.60;70.30;;;;;;5051008;28;20447;-48
2023/03/12 11:24:03;;;;;;;5.23;3.13;;;12.30;72.60;;;;;;5052338;28;20434;-49
2023/03/12 11:26:48;;;;;;;3.17;2.87;;;12.30;75.10;;;;;;5049192;28;20439;-45
2023/03/12 11:29:25;;;;;;;4.43;3.37;;;12.40;75.40;;;;;;5052801;28;20423;-49
2023/03/12 11:32:00;;;;;;;3.67;3.37;;;12.50;76.10;;;;;;5049283;28;20539;-47
2023/03/12 11:34:32;;;;;;;5.17;3.40;;;12.60;75.40;;;;;;5052111;28;20960;-48
2023/03/12 11:37:22;;;;;;;5.43;3.47;;;12.90;75.60;;;;;;5051826;28;20968;-50
2023/03/12 11:40:15;;;;;;;3.93;2.93;;;13.20;73.50;;;;;;5049250;28;20474;-49
2023/03/12 11:42:44;;;;;;;3.20;3.00;;;13.20;72.20;;;;;;5052293;28;20434;-44
2023/03/12 11:45:40;;;;;;;2.73;2.40;;;13.30;71.70;;;;;;5052381;28;20454;-48
2023/03/12 11:48:24;;;;;;;4.10;2.40;;;13.50;71.60;;;;;;5048190;28;20535;-45
2023/03/12 11:51:06;;;;;;;6.03;2.43;;;13.50;71.20;;;;;;5052418;28;20922;-46
2023/03/12 11:53:54;;;;;;;4.10;2.20;;;13.80;70.10;;;;;;5047448;28;20810;-45
2023/03/12 11:56:20;;;;;;;3.03;1.57;;;13.80;68.00;;;;;;5042248;28;20509;-44
2023/03/12 11:58:54;;;;;;;1.50;1.40;;;13.90;67.90;;;;;;5044581;28;20447;-47
2023/03/12 12:01:39;;;;;;;2.50;2.27;;;14.20;68.70;;;;;;5035770;28;20734;-48
2023/03/12 12:04:38;;;;;;;2.60;1.53;;;14.30;66.40;;;;;;5046251;28;20914;-45
2023/03/12 12:07:07;;;;;;;1.17;0.90;;;14.30;65.30;;;;;;5041561;28;20465;-48
2023/03/12 12:09:50;;;;;;;4.17;1.50;;;14.20;65.20;;;;;;5046670;28;20542;-48
2023/03/12 12:12:50;;;;;;;3.17;2.00;;;14.30;64.80;;;;;;5033769;28;20466;-45
2023/03/12 12:15:41;;;;;;;2.83;1.73;;;14.50;65.40;;;;;;5044199;28;20490;-47
2023/03/12 12:18:46;;;;;;;1.20;1.10;;;14.50;66.20;;;;;;5045646;28;20454;-45
2023/03/12 12:21:15;;;;;;;1.70;1.50;;;14.50;66.70;;;;;;5046629;28;20450;-45
2023/03/12 12:23:55;;;;;;;1.23;1.10;;;14.50;66.10;;;;;;5043218;28;20482;-46
2023/03/12 12:26:36;;;;;;;1.70;1.17;;;14.50;65.80;;;;;;5036844;28;20450;-47
2023/03/12 12:29:24;;;;;;;1.20;1.10;;;14.70;64.70;;;;;;5035843;28;20576;-45
2023/03/12 12:32:00;;;;;;;0.97;0.97;;;14.60;63.10;;;;;;5038829;28;20493;-47
2023/03/12 12:34:53;;;;;;;1.30;1.20;;;14.50;63.60;;;;;;5036495;28;20454;-46
2023/03/12 12:37:49;;;;;;;2.40;1.20;;;14.60;63.50;;;;;;5038300;28;20594;-46
2023/03/12 12:40:41;;;;;;;2.23;1.30;;;14.50;63.00;;;;;;5048577;28;20455;-45
2023/03/12 12:43:24;;;;;;;1.30;1.00;;;14.60;62.00;;;;;;5036184;28;20913;-48
2023/03/12 12:45:52;;;;;;;3.07;1.30;;;14.70;62.10;;;;;;5041687;28;20485;-47
2023/03/12 12:48:25;;;;;;;1.30;1.00;;;14.90;61.10;;;;;;5043759;28;20942;-46
2023/03/12 12:50:53;;;;;;;2.33;1.20;;;15.00;60.80;;;;;;5045410;28;20521;-50
2023/03/12 12:53:48;;;;;;;1.57;1.10;;;15.10;60.00;;;;;;5042428;28;20431;-48
2023/03/12 12:56:25;;;;;;;2.83;1.30;;;14.90;59.60;;;;;;5048207;28;21000;-46
2023/03/12 12:58:57;;;;;;;3.30;1.63;;;14.80;60.10;;;;;;5043317;28;20450;-47
2023/03/12 13:01:22;;;;;;;3.77;1.50;;;14.90;59.80;;;;;;5052192;28;20430;-48
2023/03/12 13:03:49;;;;;;;2.60;1.37;;;14.90;60.00;;;;;;5045390;28;20489;-48
2023/03/12 13:06:15;;;;;;;2.70;1.30;;;15.00;59.90;;;;;;5051591;28;20437;-48
2023/03/12 13:08:43;;;;;;;2.80;1.90;;;15.00;59.50;;;;;;5049210;28;20529;-47